Flight Track Log - Related Links

Times and Time Zones

All times are in EDT time to prevent confusion due to time zone crossing. See the EJA929 flight status page for this flight to view local times or setup timezone preferences in your user account.

Time Position Orientation Groundspeed Altitude Reporting Facility
EDT Latitude Longitude Course Direction KTS MPH feet Rate Location/Type
Thu 06:38:14 PM 29.5247 -98.4636 128° Southeast 156 180 1,600  Level Houston Center
Thu 06:39:36 PM 29.4758 -98.3906 128° Southeast 236 272 5,300 2,750 Climbing Houston Center
Thu 06:40:38 PM 29.5289 -98.3344 43° Northeast 284 327 8,200 2,256 Climbing Houston Center
Thu 06:41:41 PM 29.6122 -98.3347 360° North 305 351 10,000 1,584 Climbing Houston Center
Thu 06:42:43 PM 29.7144 -98.3356 360° North 343 395 11,500 1,500 Climbing Houston Center
Thu 06:43:45 PM 29.8167 -98.3342 North 366 421 13,100 1,597 Climbing Houston Center
Thu 06:44:47 PM 29.9281 -98.3322 North 371 427 14,800 1,548 Climbing Houston Center
Thu 06:45:49 PM 30.0314 -98.3314 360° North 371 427 16,300 1,500 Climbing Houston Center
Thu 06:46:51 PM 30.1444 -98.3297 North 377 434 17,900 1,452 Climbing Houston Center
Thu 06:47:53 PM 30.2519 -98.3314 359° North 385 443 19,300 1,306 Climbing Houston Center
Thu 06:48:55 PM 30.3614 -98.3347 358° North 400 460 20,600 1,306 Climbing Houston Center
Thu 06:49:57 PM 30.4753 -98.3367 359° North 404 465 22,000 1,344 Climbing Houston Center
Thu 06:51:00 PM 30.5914 -98.3392 359° North 409 471 23,400 960 Climbing Houston Center
Thu 06:52:02 PM 30.7050 -98.3681 348° North 422 486 24,000 290 Climbing Houston Center
Thu 06:53:04 PM 30.8189 -98.4742 321° Northwest 440 506 24,000  Level Houston Center
Thu 06:54:06 PM 30.9158 -98.5653 321° Northwest 442 509 24,000  Level Houston Center
Thu 06:55:08 PM 31.0144 -98.6564 322° Northwest 446 513 24,000  Level Houston Center
Thu 06:56:10 PM 31.1192 -98.7386 326° Northwest 453 521 24,000  Level Houston Center
Thu 06:57:12 PM 31.2483 -98.7575 353° North 460 529 24,000  Level Houston Center
Thu 06:58:14 PM 31.3767 -98.7761 353° North 459 528 24,000  Level Houston Center
Thu 06:59:16 PM 31.5064 -98.7939 353° North 462 532 24,000  Level Houston Center
Thu 07:00:18 PM 31.6550 -98.8150 353° North 457 526 24,000  Level Houston Center
Thu 07:01:20 PM 31.7817 -98.8342 353° North 455 524 24,000  Level Houston Center
Thu 07:02:22 PM 31.9100 -98.8536 353° North 458 527 24,000  Level Houston Center
Thu 07:03:26 PM 32.0461 -98.8717 354° North 459 528 24,000  Level Fort Worth Center
Thu 07:04:26 PM 32.1711 -98.8933 352° North 464 534 24,000  Level Fort Worth Center
Thu 07:05:26 PM 32.2983 -98.9103 354° North 464 534 24,000  Level Fort Worth Center
Thu 07:06:26 PM 32.4256 -98.9294 353° North 464 534 24,000  Level Fort Worth Center
Thu 07:07:26 PM 32.5525 -98.9464 354° North 459 528 24,000  Level Fort Worth Center
Thu 07:08:26 PM 32.6775 -98.9658 353° North 459 528 24,000  Level Fort Worth Center
Thu 07:09:26 PM 32.8047 -98.9853 353° North 459 528 24,000  Level Fort Worth Center
Thu 07:10:26 PM 32.9300 -98.9803 North 457 526 24,000  Level Fort Worth Center
Thu 07:11:26 PM 33.0558 -98.9403 15° North 450 518 24,000  Level Fort Worth Center
Thu 07:12:26 PM 33.1814 -98.9003 15° North 457 526 24,000  Level Fort Worth Center
Thu 07:13:26 PM 33.3092 -98.8600 15° North 457 526 24,000  Level Fort Worth Center
Thu 07:14:26 PM 33.4328 -98.8197 15° North 457 526 24,000  Level Fort Worth Center
Thu 07:15:26 PM 33.5542 -98.7919 11° North 451 519 24,000  Level Fort Worth Center
Thu 07:16:26 PM 33.6836 -98.7964 358° North 451 519 24,000  Level Fort Worth Center
Thu 07:17:26 PM 33.8067 -98.7933 North 444 511 24,000  Level Fort Worth Center
Thu 07:18:26 PM 33.9319 -98.7928 360° North 439 505 24,000  Level Fort Worth Center
Thu 07:19:26 PM 34.0572 -98.7997 357° North 439 505 24,000  Level Fort Worth Center
Thu 07:20:26 PM 34.1761 -98.7967 North 434 499 24,000  Level Fort Worth Center
Thu 07:21:26 PM 34.3014 -98.7936 North 440 506 24,000  Level Fort Worth Center
Thu 07:22:26 PM 34.4244 -98.7881 North 440 506 24,000  Level Fort Worth Center
Thu 07:23:26 PM 34.5400 -98.7194 26° Northeast 440 506 24,000  Level Fort Worth Center
Thu 07:24:26 PM 34.6331 -98.5947 48° Northeast 453 521 24,000  Level Fort Worth Center
Thu 07:25:26 PM 34.7069 -98.4922 49° Northeast 475 547 24,000  Level Fort Worth Center
Thu 07:26:26 PM 34.8186 -98.3544 45° Northeast 475 547 24,000 -619 Level Fort Worth Center
Thu 07:27:03 PM 34.8733 -98.2792 48° Northeast 490 564 23,000 -2,200 Descending Fort Worth Center
Thu 07:27:26 PM 34.9133 -98.2289 46° Northeast 489 563 21,800 -3,583 Descending Fort Worth Center
Thu 07:28:15 PM 34.9869 -98.1256 49° Northeast 500 575 18,700 -3,764 Descending Fort Worth Center
Thu 07:29:16 PM 35.0794 -98.0122 45° Northeast 468 539 14,900 -3,573 Descending Fort Worth Center
Thu 07:30:26 PM 35.1781 -97.8886 46° Northeast 451 519 10,900 -2,529 Descending Fort Worth Center
Thu 07:31:17 PM 35.2531 -97.8558 20° North 325 374 9,800 -1,700 Descending Fort Worth Center
Thu 07:32:26 PM 35.3450 -97.8131 21° North 327 376 7,500 -2,035 Descending Fort Worth Center
Thu 07:33:12 PM 35.4014 -97.7906 18° North 274 315 5,900 -1,850 Descending Fort Worth Center
Thu 07:34:13 PM 35.4725 -97.7603 19° North 271 312 4,200 -942 Descending Fort Worth Center
Thu 07:35:13 PM 35.5392 -97.7300 20° North 249 287 4,000 -99 Descending Fort Worth Center
Thu 07:36:14 PM 35.5436 -97.6558 86° East 217 250 4,000 -248 Level Fort Worth Center
Thu 07:37:14 PM 35.5125 -97.5947 122° Southeast 204 235 3,500 -694 Descending Fort Worth Center
Thu 07:38:15 PM 35.4644 -97.5919 177° South 154 177 2,600 -836 Descending Fort Worth Center
Thu 07:39:16 PM 35.4289 -97.5919 180° South 106 122 1,800 -641 Descending Fort Worth Center
Thu 07:40:26 PM 35.3978 -97.5919 180° South 121 139 1,200 -514 Descending Fort Worth Center

Login

Don't have an account? Register now (free) for customized features, flight alerts, and more!